sensor_id;sensor_type;location;lat;lon;timestamp;temperature;humidity
18392;DHT22;9322;50.932;5.318;2024-01-15T00:00:01;2.30;1.40
18392;DHT22;9322;50.932;5.318;2024-01-15T00:02:26;2.20;1.40
18392;DHT22;9322;50.932;5.318;2024-01-15T00:04:52;2.30;1.40
18392;DHT22;9322;50.932;5.318;2024-01-15T00:07:18;2.30;1.40
18392;DHT22;9322;50.932;5.318;2024-01-15T00:09:43;2.20;1.40
18392;DHT22;9322;50.932;5.318;2024-01-15T00:12:09;2.30;1.40
18392;DHT22;9322;50.932;5.318;2024-01-15T00:14:35;2.30;1.40
18392;DHT22;9322;50.932;5.318;2024-01-15T00:17:01;2.40;1.40
18392;DHT22;9322;50.932;5.318;2024-01-15T00:19:26;2.30;1.40
18392;DHT22;9322;50.932;5.318;2024-01-15T00:21:52;2.30;1.40
18392;DHT22;9322;50.932;5.318;2024-01-15T00:24:18;2.30;1.40
18392;DHT22;9322;50.932;5.318;2024-01-15T00:26:44;2.30;1.40
18392;DHT22;9322;50.932;5.318;2024-01-15T00:29:10;2.40;1.40
18392;DHT22;9322;50.932;5.318;2024-01-15T00:31:36;2.30;1.40
18392;DHT22;9322;50.932;5.318;2024-01-15T00:34:02;2.30;1.40
18392;DHT22;9322;50.932;5.318;2024-01-15T00:36:27;2.10;1.40
18392;DHT22;9322;50.932;5.318;2024-01-15T00:38:54;2.00;1.40
18392;DHT22;9322;50.932;5.318;2024-01-15T00:41:20;1.90;1.40
18392;DHT22;9322;50.932;5.318;2024-01-15T00:43:46;1.90;1.40
18392;DHT22;9322;50.932;5.318;2024-01-15T00:46:11;1.90;1.40
18392;DHT22;9322;50.932;5.318;2024-01-15T00:48:37;1.80;1.40
18392;DHT22;9322;50.932;5.318;2024-01-15T00:51:04;1.90;1.40
18392;DHT22;9322;50.932;5.318;2024-01-15T00:53:30;1.70;1.40
18392;DHT22;9322;50.932;5.318;2024-01-15T00:55:55;1.70;1.40
18392;DHT22;9322;50.932;5.318;2024-01-15T00:58:21;1.70;1.40
18392;DHT22;9322;50.932;5.318;2024-01-15T01:00:47;1.70;1.40
18392;DHT22;9322;50.932;5.318;2024-01-15T01:03:12;1.70;1.40
18392;DHT22;9322;50.932;5.318;2024-01-15T01:05:38;1.70;1.40
18392;DHT22;9322;50.932;5.318;2024-01-15T01:08:04;1.90;1.40
18392;DHT22;9322;50.932;5.318;2024-01-15T01:10:30;1.80;1.40
18392;DHT22;9322;50.932;5.318;2024-01-15T01:12:56;1.70;1.40
18392;DHT22;9322;50.932;5.318;2024-01-15T01:15:21;1.90;1.40
18392;DHT22;9322;50.932;5.318;2024-01-15T01:17:47;1.70;1.40
18392;DHT22;9322;50.932;5.318;2024-01-15T01:20:13;1.70;1.40
18392;DHT22;9322;50.932;5.318;2024-01-15T01:22:40;1.80;1.40
18392;DHT22;9322;50.932;5.318;2024-01-15T01:25:07;1.70;1.40
18392;DHT22;9322;50.932;5.318;2024-01-15T01:27:33;1.80;1.40
18392;DHT22;9322;50.932;5.318;2024-01-15T01:29:59;1.80;1.40
18392;DHT22;9322;50.932;5.318;2024-01-15T01:32:24;1.80;1.40
18392;DHT22;9322;50.932;5.318;2024-01-15T01:34:50;1.90;1.40
18392;DHT22;9322;50.932;5.318;2024-01-15T01:37:16;2.10;1.40
18392;DHT22;9322;50.932;5.318;2024-01-15T01:39:42;1.80;1.40
18392;DHT22;9322;50.932;5.318;2024-01-15T01:42:09;1.80;1.40
18392;DHT22;9322;50.932;5.318;2024-01-15T01:44:34;1.90;1.40
18392;DHT22;9322;50.932;5.318;2024-01-15T01:47:01;1.90;1.40
18392;DHT22;9322;50.932;5.318;2024-01-15T01:49:27;2.00;1.40
18392;DHT22;9322;50.932;5.318;2024-01-15T01:51:58;1.90;1.40
18392;DHT22;9322;50.932;5.318;2024-01-15T01:54:28;1.90;1.40
18392;DHT22;9322;50.932;5.318;2024-01-15T01:56:54;1.90;1.40
18392;DHT22;9322;50.932;5.318;2024-01-15T01:59:22;2.00;1.40
18392;DHT22;9322;50.932;5.318;2024-01-15T02:01:49;2.00;1.40
18392;DHT22;9322;50.932;5.318;2024-01-15T02:04:16;2.10;1.40
18392;DHT22;9322;50.932;5.318;2024-01-15T02:06:42;2.30;1.40
18392;DHT22;9322;50.932;5.318;2024-01-15T02:09:08;2.00;1.40
18392;DHT22;9322;50.932;5.318;2024-01-15T02:11:36;2.00;1.40
18392;DHT22;9322;50.932;5.318;2024-01-15T02:14:02;2.10;1.40
18392;DHT22;9322;50.932;5.318;2024-01-15T02:16:28;2.10;1.40
18392;DHT22;9322;50.932;5.318;2024-01-15T02:18:54;2.00;1.40
18392;DHT22;9322;50.932;5.318;2024-01-15T02:21:19;2.10;1.40
18392;DHT22;9322;50.932;5.318;2024-01-15T02:23:45;2.10;1.40
18392;DHT22;9322;50.932;5.318;2024-01-15T02:26:11;2.00;1.40
18392;DHT22;9322;50.932;5.318;2024-01-15T02:28:37;2.00;1.40
18392;DHT22;9322;50.932;5.318;2024-01-15T02:31:03;2.20;1.40
18392;DHT22;9322;50.932;5.318;2024-01-15T02:33:29;2.10;1.40
18392;DHT22;9322;50.932;5.318;2024-01-15T02:35:54;2.40;1.40
18392;DHT22;9322;50.932;5.318;2024-01-15T02:38:20;2.10;1.40
18392;DHT22;9322;50.932;5.318;2024-01-15T02:40:46;2.20;1.40
18392;DHT22;9322;50.932;5.318;2024-01-15T02:43:12;2.20;1.40
18392;DHT22;9322;50.932;5.318;2024-01-15T02:45:39;2.20;1.40
18392;DHT22;9322;50.932;5.318;2024-01-15T02:48:05;2.20;1.40
18392;DHT22;9322;50.932;5.318;2024-01-15T02:50:31;2.10;1.40
18392;DHT22;9322;50.932;5.318;2024-01-15T02:52:56;2.00;1.40
18392;DHT22;9322;50.932;5.318;2024-01-15T02:55:22;2.10;1.40
18392;DHT22;9322;50.932;5.318;2024-01-15T02:57:48;2.00;1.40
18392;DHT22;9322;50.932;5.318;2024-01-15T03:00:14;2.00;1.40
18392;DHT22;9322;50.932;5.318;2024-01-15T03:02:40;2.00;1.40
18392;DHT22;9322;50.932;5.318;2024-01-15T03:05:09;2.00;1.40
18392;DHT22;9322;50.932;5.318;2024-01-15T03:07:34;2.00;1.40
18392;DHT22;9322;50.932;5.318;2024-01-15T03:10:01;2.10;1.40
18392;DHT22;9322;50.932;5.318;2024-01-15T03:12:27;2.10;1.40
18392;DHT22;9322;50.932;5.318;2024-01-15T03:14:52;2.10;1.40
18392;DHT22;9322;50.932;5.318;2024-01-15T03:17:18;2.00;1.40
18392;DHT22;9322;50.932;5.318;2024-01-15T03:19:44;2.00;1.40
18392;DHT22;9322;50.932;5.318;2024-01-15T03:22:09;2.00;1.40
18392;DHT22;9322;50.932;5.318;2024-01-15T03:24:35;2.30;1.40
18392;DHT22;9322;50.932;5.318;2024-01-15T03:27:02;2.20;1.40
18392;DHT22;9322;50.932;5.318;2024-01-15T03:29:28;2.20;1.40
18392;DHT22;9322;50.932;5.318;2024-01-15T03:31:53;2.40;1.40
18392;DHT22;9322;50.932;5.318;2024-01-15T03:34:19;2.20;1.40
18392;DHT22;9322;50.932;5.318;2024-01-15T03:36:45;2.10;1.40
18392;DHT22;9322;50.932;5.318;2024-01-15T03:39:10;2.10;1.40
18392;DHT22;9322;50.932;5.318;2024-01-15T03:41:36;2.20;1.40
18392;DHT22;9322;50.932;5.318;2024-01-15T03:44:02;2.10;1.40
18392;DHT22;9322;50.932;5.318;2024-01-15T03:46:28;2.10;1.40
18392;DHT22;9322;50.932;5.318;2024-01-15T03:48:53;2.10;1.40
18392;DHT22;9322;50.932;5.318;2024-01-15T03:51:19;2.10;1.40
18392;DHT22;9322;50.932;5.318;2024-01-15T03:53:45;2.10;1.40
18392;DHT22;9322;50.932;5.318;2024-01-15T03:56:11;2.00;1.40
18392;DHT22;9322;50.932;5.318;2024-01-15T03:58:37;2.10;1.40
18392;DHT22;9322;50.932;5.318;2024-01-15T04:01:03;2.20;1.40
18392;DHT22;9322;50.932;5.318;2024-01-15T04:03:29;2.10;1.40
18392;DHT22;9322;50.932;5.318;2024-01-15T04:05:54;2.10;1.40
18392;DHT22;9322;50.932;5.318;2024-01-15T04:08:20;2.10;1.40
18392;DHT22;9322;50.932;5.318;2024-01-15T04:10:46;2.10;1.40
18392;DHT22;9322;50.932;5.318;2024-01-15T04:13:12;2.10;1.40
18392;DHT22;9322;50.932;5.318;2024-01-15T04:15:37;2.10;1.40
18392;DHT22;9322;50.932;5.318;2024-01-15T04:18:03;2.10;1.40
18392;DHT22;9322;50.932;5.318;2024-01-15T04:20:29;2.10;1.40
18392;DHT22;9322;50.932;5.318;2024-01-15T04:22:55;2.10;1.40
18392;DHT22;9322;50.932;5.318;2024-01-15T04:25:20;1.90;1.40
18392;DHT22;9322;50.932;5.318;2024-01-15T04:27:46;1.90;1.40
18392;DHT22;9322;50.932;5.318;2024-01-15T04:30:12;1.90;1.40
18392;DHT22;9322;50.932;5.318;2024-01-15T04:32:38;2.00;1.40
18392;DHT22;9322;50.932;5.318;2024-01-15T04:35:04;2.00;1.40
18392;DHT22;9322;50.932;5.318;2024-01-15T04:37:30;2.00;1.40
18392;DHT22;9322;50.932;5.318;2024-01-15T04:39:55;2.00;1.40
18392;DHT22;9322;50.932;5.318;2024-01-15T04:42:23;1.90;1.40
18392;DHT22;9322;50.932;5.318;2024-01-15T04:44:49;2.10;1.40
18392;DHT22;9322;50.932;5.318;2024-01-15T04:47:15;1.90;1.40
18392;DHT22;9322;50.932;5.318;2024-01-15T04:49:41;1.90;1.40
18392;DHT22;9322;50.932;5.318;2024-01-15T04:52:06;2.00;1.40
18392;DHT22;9322;50.932;5.318;2024-01-15T04:54:35;2.00;1.40
18392;DHT22;9322;50.932;5.318;2024-01-15T04:57:01;2.20;1.40
18392;DHT22;9322;50.932;5.318;2024-01-15T04:59:28;2.00;1.40
18392;DHT22;9322;50.932;5.318;2024-01-15T05:01:54;2.20;1.40
18392;DHT22;9322;50.932;5.318;2024-01-15T05:04:20;2.00;1.40
18392;DHT22;9322;50.932;5.318;2024-01-15T05:06:46;2.00;1.40
18392;DHT22;9322;50.932;5.318;2024-01-15T05:09:11;2.00;1.40
18392;DHT22;9322;50.932;5.318;2024-01-15T05:11:39;2.10;1.40
18392;DHT22;9322;50.932;5.318;2024-01-15T05:14:05;2.20;1.40
18392;DHT22;9322;50.932;5.318;2024-01-15T05:16:30;2.00;1.40
18392;DHT22;9322;50.932;5.318;2024-01-15T05:18:56;1.90;1.40
18392;DHT22;9322;50.932;5.318;2024-01-15T05:21:22;2.00;1.40
18392;DHT22;9322;50.932;5.318;2024-01-15T05:23:48;2.00;1.40
18392;DHT22;9322;50.932;5.318;2024-01-15T05:26:13;2.10;1.40
18392;DHT22;9322;50.932;5.318;2024-01-15T05:28:41;2.00;1.40
18392;DHT22;9322;50.932;5.318;2024-01-15T05:31:08;1.90;1.40
18392;DHT22;9322;50.932;5.318;2024-01-15T05:33:34;1.80;1.40
18392;DHT22;9322;50.932;5.318;2024-01-15T05:36:00;1.80;1.40
18392;DHT22;9322;50.932;5.318;2024-01-15T05:38:25;1.80;1.40
18392;DHT22;9322;50.932;5.318;2024-01-15T05:40:51;1.80;1.40
18392;DHT22;9322;50.932;5.318;2024-01-15T05:43:17;1.80;1.40
18392;DHT22;9322;50.932;5.318;2024-01-15T05:45:43;1.70;1.40
18392;DHT22;9322;50.932;5.318;2024-01-15T05:48:10;1.60;1.40
18392;DHT22;9322;50.932;5.318;2024-01-15T05:50:36;1.60;1.40
18392;DHT22;9322;50.932;5.318;2024-01-15T05:53:01;1.70;1.40
18392;DHT22;9322;50.932;5.318;2024-01-15T05:55:28;1.70;1.40
18392;DHT22;9322;50.932;5.318;2024-01-15T05:57:53;1.80;1.40
18392;DHT22;9322;50.932;5.318;2024-01-15T06:00:19;1.60;1.40
18392;DHT22;9322;50.932;5.318;2024-01-15T06:02:45;1.50;1.40
18392;DHT22;9322;50.932;5.318;2024-01-15T06:05:11;1.60;1.40
18392;DHT22;9322;50.932;5.318;2024-01-15T06:07:36;1.60;1.40
18392;DHT22;9322;50.932;5.318;2024-01-15T06:10:03;1.60;1.40
18392;DHT22;9322;50.932;5.318;2024-01-15T06:12:30;1.60;1.40
18392;DHT22;9322;50.932;5.318;2024-01-15T06:14:57;1.70;1.40
18392;DHT22;9322;50.932;5.318;2024-01-15T06:17:23;1.70;1.40
18392;DHT22;9322;50.932;5.318;2024-01-15T06:19:49;1.40;1.40
18392;DHT22;9322;50.932;5.318;2024-01-15T06:22:14;1.70;1.40
18392;DHT22;9322;50.932;5.318;2024-01-15T06:24:41;1.40;1.40
18392;DHT22;9322;50.932;5.318;2024-01-15T06:27:07;1.50;1.40
18392;DHT22;9322;50.932;5.318;2024-01-15T06:29:33;1.40;1.40
18392;DHT22;9322;50.932;5.318;2024-01-15T06:31:59;1.40;1.40
18392;DHT22;9322;50.932;5.318;2024-01-15T06:34:24;1.40;1.40
18392;DHT22;9322;50.932;5.318;2024-01-15T06:36:50;1.30;1.40
18392;DHT22;9322;50.932;5.318;2024-01-15T06:39:16;1.30;1.40
18392;DHT22;9322;50.932;5.318;2024-01-15T06:41:41;1.30;1.40
18392;DHT22;9322;50.932;5.318;2024-01-15T06:44:12;1.30;1.40
18392;DHT22;9322;50.932;5.318;2024-01-15T06:46:44;1.40;1.40
18392;DHT22;9322;50.932;5.318;2024-01-15T06:49:11;1.30;1.40
18392;DHT22;9322;50.932;5.318;2024-01-15T06:51:37;1.30;1.40
18392;DHT22;9322;50.932;5.318;2024-01-15T06:54:03;1.40;1.40
18392;DHT22;9322;50.932;5.318;2024-01-15T06:56:29;1.40;1.40
18392;DHT22;9322;50.932;5.318;2024-01-15T06:58:54;1.50;1.40
18392;DHT22;9322;50.932;5.318;2024-01-15T07:01:20;1.50;1.40
18392;DHT22;9322;50.932;5.318;2024-01-15T07:03:46;1.50;1.40
18392;DHT22;9322;50.932;5.318;2024-01-15T07:06:12;1.60;1.40
18392;DHT22;9322;50.932;5.318;2024-01-15T07:08:39;1.60;1.40
18392;DHT22;9322;50.932;5.318;2024-01-15T07:11:05;1.80;1.40
18392;DHT22;9322;50.932;5.318;2024-01-15T07:13:31;1.70;1.40
18392;DHT22;9322;50.932;5.318;2024-01-15T07:15:57;1.70;1.40
18392;DHT22;9322;50.932;5.318;2024-01-15T07:18:23;1.80;1.40
18392;DHT22;9322;50.932;5.318;2024-01-15T07:20:49;1.70;1.40
18392;DHT22;9322;50.932;5.318;2024-01-15T07:23:14;1.70;1.40
18392;DHT22;9322;50.932;5.318;2024-01-15T07:25:40;1.80;1.40
18392;DHT22;9322;50.932;5.318;2024-01-15T07:28:06;2.10;1.40
18392;DHT22;9322;50.932;5.318;2024-01-15T07:30:32;2.00;1.40
18392;DHT22;9322;50.932;5.318;2024-01-15T07:32:57;2.00;1.40
18392;DHT22;9322;50.932;5.318;2024-01-15T07:35:23;2.10;1.40
18392;DHT22;9322;50.932;5.318;2024-01-15T07:37:49;1.90;1.40
18392;DHT22;9322;50.932;5.318;2024-01-15T07:40:14;2.00;1.40
18392;DHT22;9322;50.932;5.318;2024-01-15T07:42:40;1.90;1.40
18392;DHT22;9322;50.932;5.318;2024-01-15T07:45:08;2.10;1.40
18392;DHT22;9322;50.932;5.318;2024-01-15T07:47:34;2.00;1.40
18392;DHT22;9322;50.932;5.318;2024-01-15T07:50:00;2.00;1.40
18392;DHT22;9322;50.932;5.318;2024-01-15T07:52:25;2.00;1.40
18392;DHT22;9322;50.932;5.318;2024-01-15T07:54:51;2.00;1.40
18392;DHT22;9322;50.932;5.318;2024-01-15T07:57:17;2.10;1.40
18392;DHT22;9322;50.932;5.318;2024-01-15T07:59:42;2.10;1.40
18392;DHT22;9322;50.932;5.318;2024-01-15T08:02:08;2.10;1.40
18392;DHT22;9322;50.932;5.318;2024-01-15T08:04:37;2.10;1.40
18392;DHT22;9322;50.932;5.318;2024-01-15T08:07:03;2.00;1.40
18392;DHT22;9322;50.932;5.318;2024-01-15T08:09:29;2.10;1.40
18392;DHT22;9322;50.932;5.318;2024-01-15T08:11:55;2.20;1.40
18392;DHT22;9322;50.932;5.318;2024-01-15T08:14:21;2.20;1.40
18392;DHT22;9322;50.932;5.318;2024-01-15T08:16:47;2.20;1.40
18392;DHT22;9322;50.932;5.318;2024-01-15T08:19:12;2.30;1.40
18392;DHT22;9322;50.932;5.318;2024-01-15T08:21:39;2.20;1.40
18392;DHT22;9322;50.932;5.318;2024-01-15T08:24:05;2.40;1.40
18392;DHT22;9322;50.932;5.318;2024-01-15T08:26:31;2.30;1.40
18392;DHT22;9322;50.932;5.318;2024-01-15T08:29:00;2.30;1.40
18392;DHT22;9322;50.932;5.318;2024-01-15T08:31:26;2.50;1.40
18392;DHT22;9322;50.932;5.318;2024-01-15T08:33:51;2.30;1.40
18392;DHT22;9322;50.932;5.318;2024-01-15T08:36:18;2.40;1.40
18392;DHT22;9322;50.932;5.318;2024-01-15T08:38:44;2.40;1.40
18392;DHT22;9322;50.932;5.318;2024-01-15T08:41:10;2.50;1.40
18392;DHT22;9322;50.932;5.318;2024-01-15T08:43:36;2.40;1.40
18392;DHT22;9322;50.932;5.318;2024-01-15T08:46:02;2.40;1.40
18392;DHT22;9322;50.932;5.318;2024-01-15T08:48:28;2.40;1.40
18392;DHT22;9322;50.932;5.318;2024-01-15T08:50:54;2.50;1.40
18392;DHT22;9322;50.932;5.318;2024-01-15T08:53:20;2.40;1.40
18392;DHT22;9322;50.932;5.318;2024-01-15T08:55:47;2.50;1.40
18392;DHT22;9322;50.932;5.318;2024-01-15T08:58:13;2.50;1.40
18392;DHT22;9322;50.932;5.318;2024-01-15T09:00:39;2.40;1.40
18392;DHT22;9322;50.932;5.318;2024-01-15T09:03:05;2.40;1.40
18392;DHT22;9322;50.932;5.318;2024-01-15T09:05:31;2.40;1.40
18392;DHT22;9322;50.932;5.318;2024-01-15T09:07:57;2.20;1.40
18392;DHT22;9322;50.932;5.318;2024-01-15T09:10:23;2.30;1.40
18392;DHT22;9322;50.932;5.318;2024-01-15T09:12:49;2.20;1.40
18392;DHT22;9322;50.932;5.318;2024-01-15T09:15:15;2.20;1.40
18392;DHT22;9322;50.932;5.318;2024-01-15T09:17:41;2.20;1.40
18392;DHT22;9322;50.932;5.318;2024-01-15T09:20:07;2.20;1.40
18392;DHT22;9322;50.932;5.318;2024-01-15T09:22:33;2.10;1.40
18392;DHT22;9322;50.932;5.318;2024-01-15T09:24:58;2.20;1.40
18392;DHT22;9322;50.932;5.318;2024-01-15T09:27:25;2.20;1.40
18392;DHT22;9322;50.932;5.318;2024-01-15T09:29:54;2.40;1.40
18392;DHT22;9322;50.932;5.318;2024-01-15T09:32:20;2.30;1.40
18392;DHT22;9322;50.932;5.318;2024-01-15T09:34:46;2.40;1.40
18392;DHT22;9322;50.932;5.318;2024-01-15T09:37:12;2.50;1.40
18392;DHT22;9322;50.932;5.318;2024-01-15T09:39:38;2.50;1.40
18392;DHT22;9322;50.932;5.318;2024-01-15T09:42:04;2.40;1.40
18392;DHT22;9322;50.932;5.318;2024-01-15T09:44:31;2.50;1.40
18392;DHT22;9322;50.932;5.318;2024-01-15T09:46:57;2.50;1.40
18392;DHT22;9322;50.932;5.318;2024-01-15T09:49:23;2.60;1.40
18392;DHT22;9322;50.932;5.318;2024-01-15T09:51:49;2.60;1.40
18392;DHT22;9322;50.932;5.318;2024-01-15T09:54:18;2.70;1.40
18392;DHT22;9322;50.932;5.318;2024-01-15T09:56:47;2.90;1.40
18392;DHT22;9322;50.932;5.318;2024-01-15T09:59:18;2.90;1.40
18392;DHT22;9322;50.932;5.318;2024-01-15T10:01:45;3.00;1.40
18392;DHT22;9322;50.932;5.318;2024-01-15T10:04:11;3.00;1.40
18392;DHT22;9322;50.932;5.318;2024-01-15T10:06:39;3.10;1.40
18392;DHT22;9322;50.932;5.318;2024-01-15T10:09:07;3.10;1.40
18392;DHT22;9322;50.932;5.318;2024-01-15T10:11:33;3.20;1.40
18392;DHT22;9322;50.932;5.318;2024-01-15T10:13:59;3.20;1.40
18392;DHT22;9322;50.932;5.318;2024-01-15T10:16:26;3.40;1.40
18392;DHT22;9322;50.932;5.318;2024-01-15T10:18:51;3.60;1.40
18392;DHT22;9322;50.932;5.318;2024-01-15T10:21:17;3.50;1.40
18392;DHT22;9322;50.932;5.318;2024-01-15T10:23:43;3.70;1.40
18392;DHT22;9322;50.932;5.318;2024-01-15T10:26:09;3.80;1.40
18392;DHT22;9322;50.932;5.318;2024-01-15T10:28:37;3.80;1.40
18392;DHT22;9322;50.932;5.318;2024-01-15T10:31:03;4.10;1.40
18392;DHT22;9322;50.932;5.318;2024-01-15T10:33:30;4.90;1.40
18392;DHT22;9322;50.932;5.318;2024-01-15T10:35:58;6.80;1.40
18392;DHT22;9322;50.932;5.318;2024-01-15T10:38:25;8.30;1.40
18392;DHT22;9322;50.932;5.318;2024-01-15T10:40:51;8.40;1.40
18392;DHT22;9322;50.932;5.318;2024-01-15T10:43:17;7.50;1.40
18392;DHT22;9322;50.932;5.318;2024-01-15T10:45:50;6.60;1.40
18392;DHT22;9322;50.932;5.318;2024-01-15T10:48:18;5.70;1.40
18392;DHT22;9322;50.932;5.318;2024-01-15T10:50:45;6.50;1.40
18392;DHT22;9322;50.932;5.318;2024-01-15T10:53:13;7.70;1.40
18392;DHT22;9322;50.932;5.318;2024-01-15T10:55:39;9.20;1.40
18392;DHT22;9322;50.932;5.318;2024-01-15T10:58:07;10.00;1.40
18392;DHT22;9322;50.932;5.318;2024-01-15T11:00:37;10.80;1.40
18392;DHT22;9322;50.932;5.318;2024-01-15T11:03:05;11.20;1.40
18392;DHT22;9322;50.932;5.318;2024-01-15T11:05:43;12.10;1.40
18392;DHT22;9322;50.932;5.318;2024-01-15T11:08:09;12.10;1.40
18392;DHT22;9322;50.932;5.318;2024-01-15T11:10:48;12.10;1.40
18392;DHT22;9322;50.932;5.318;2024-01-15T11:13:40;11.00;1.40
18392;DHT22;9322;50.932;5.318;2024-01-15T11:16:08;10.10;1.40
18392;DHT22;9322;50.932;5.318;2024-01-15T11:18:39;9.60;1.40
18392;DHT22;9322;50.932;5.318;2024-01-15T11:23:52;10.20;1.40
18392;DHT22;9322;50.932;5.318;2024-01-15T11:29:28;7.20;1.40
18392;DHT22;9322;50.932;5.318;2024-01-15T11:31:58;6.60;1.40
18392;DHT22;9322;50.932;5.318;2024-01-15T11:34:50;5.70;1.40
18392;DHT22;9322;50.932;5.318;2024-01-15T11:37:17;5.30;1.40
18392;DHT22;9322;50.932;5.318;2024-01-15T11:39:43;4.90;1.40
18392;DHT22;9322;50.932;5.318;2024-01-15T11:42:10;4.60;1.40
18392;DHT22;9322;50.932;5.318;2024-01-15T11:44:40;4.20;1.40
18392;DHT22;9322;50.932;5.318;2024-01-15T11:47:09;3.80;1.40
18392;DHT22;9322;50.932;5.318;2024-01-15T11:50:00;3.60;1.40
18392;DHT22;9322;50.932;5.318;2024-01-15T11:52:35;3.20;1.40
18392;DHT22;9322;50.932;5.318;2024-01-15T11:57:50;3.00;1.40
18392;DHT22;9322;50.932;5.318;2024-01-15T12:00:16;2.80;1.40
18392;DHT22;9322;50.932;5.318;2024-01-15T12:02:44;2.70;1.40
18392;DHT22;9322;50.932;5.318;2024-01-15T12:05:16;2.60;1.40
18392;DHT22;9322;50.932;5.318;2024-01-15T12:07:43;2.50;1.40
18392;DHT22;9322;50.932;5.318;2024-01-15T12:10:13;2.30;1.40
18392;DHT22;9322;50.932;5.318;2024-01-15T12:15:17;2.30;1.40
18392;DHT22;9322;50.932;5.318;2024-01-15T12:17:42;2.40;1.40
18392;DHT22;9322;50.932;5.318;2024-01-15T12:20:09;2.60;1.40
18392;DHT22;9322;50.932;5.318;2024-01-15T12:22:35;2.60;1.40
18392;DHT22;9322;50.932;5.318;2024-01-15T12:25:01;2.50;1.40
18392;DHT22;9322;50.932;5.318;2024-01-15T12:27:27;2.40;1.40
18392;DHT22;9322;50.932;5.318;2024-01-15T12:29:55;2.40;1.40
18392;DHT22;9322;50.932;5.318;2024-01-15T12:32:21;2.30;1.40
18392;DHT22;9322;50.932;5.318;2024-01-15T12:34:50;2.20;1.40
18392;DHT22;9322;50.932;5.318;2024-01-15T12:37:18;2.20;1.40
18392;DHT22;9322;50.932;5.318;2024-01-15T12:39:44;2.20;1.40
18392;DHT22;9322;50.932;5.318;2024-01-15T12:42:10;2.40;1.40
18392;DHT22;9322;50.932;5.318;2024-01-15T12:44:36;2.50;1.40
18392;DHT22;9322;50.932;5.318;2024-01-15T12:47:05;2.90;1.40
18392;DHT22;9322;50.932;5.318;2024-01-15T12:49:31;3.00;1.40
18392;DHT22;9322;50.932;5.318;2024-01-15T12:51:57;3.00;1.40
18392;DHT22;9322;50.932;5.318;2024-01-15T12:54:24;3.20;1.40
18392;DHT22;9322;50.932;5.318;2024-01-15T12:56:50;3.00;1.40
18392;DHT22;9322;50.932;5.318;2024-01-15T12:59:17;3.10;1.40
18392;DHT22;9322;50.932;5.318;2024-01-15T13:01:43;2.90;1.40
18392;DHT22;9322;50.932;5.318;2024-01-15T13:04:10;2.80;1.40
18392;DHT22;9322;50.932;5.318;2024-01-15T13:06:36;2.80;1.40
18392;DHT22;9322;50.932;5.318;2024-01-15T13:09:03;2.70;1.40
18392;DHT22;9322;50.932;5.318;2024-01-15T13:11:33;2.80;1.40
18392;DHT22;9322;50.932;5.318;2024-01-15T13:13:59;2.60;1.40
18392;DHT22;9322;50.932;5.318;2024-01-15T13:16:25;2.80;1.40
18392;DHT22;9322;50.932;5.318;2024-01-15T13:18:54;2.70;1.40
18392;DHT22;9322;50.932;5.318;2024-01-15T13:21:20;2.70;1.40
18392;DHT22;9322;50.932;5.318;2024-01-15T13:23:46;2.70;1.40
18392;DHT22;9322;50.932;5.318;2024-01-15T13:26:12;2.80;1.40
18392;DHT22;9322;50.932;5.318;2024-01-15T13:28:38;2.60;1.40
18392;DHT22;9322;50.932;5.318;2024-01-15T13:31:03;2.90;1.40
18392;DHT22;9322;50.932;5.318;2024-01-15T13:33:30;3.10;1.40
18392;DHT22;9322;50.932;5.318;2024-01-15T13:35:55;3.00;1.40
18392;DHT22;9322;50.932;5.318;2024-01-15T13:38:21;3.20;1.40
18392;DHT22;9322;50.932;5.318;2024-01-15T13:40:47;3.00;1.40
18392;DHT22;9322;50.932;5.318;2024-01-15T13:43:13;3.10;1.40
18392;DHT22;9322;50.932;5.318;2024-01-15T13:45:41;3.10;1.40
18392;DHT22;9322;50.932;5.318;2024-01-15T13:48:07;3.00;1.40
18392;DHT22;9322;50.932;5.318;2024-01-15T13:50:36;3.20;1.40
18392;DHT22;9322;50.932;5.318;2024-01-15T13:53:03;3.20;1.40
18392;DHT22;9322;50.932;5.318;2024-01-15T13:55:29;3.00;1.40
18392;DHT22;9322;50.932;5.318;2024-01-15T13:57:55;3.00;1.40
18392;DHT22;9322;50.932;5.318;2024-01-15T14:00:21;3.00;1.40
18392;DHT22;9322;50.932;5.318;2024-01-15T14:02:47;3.00;1.40
18392;DHT22;9322;50.932;5.318;2024-01-15T14:05:13;3.10;1.40
18392;DHT22;9322;50.932;5.318;2024-01-15T14:07:39;3.10;1.40
18392;DHT22;9322;50.932;5.318;2024-01-15T14:10:06;3.00;1.40
18392;DHT22;9322;50.932;5.318;2024-01-15T14:12:34;3.00;1.40
18392;DHT22;9322;50.932;5.318;2024-01-15T14:15:03;3.10;1.40
18392;DHT22;9322;50.932;5.318;2024-01-15T14:17:29;3.00;1.40
18392;DHT22;9322;50.932;5.318;2024-01-15T14:19:55;3.10;1.40
18392;DHT22;9322;50.932;5.318;2024-01-15T14:22:20;3.00;1.40
18392;DHT22;9322;50.932;5.318;2024-01-15T14:24:46;2.90;1.40
18392;DHT22;9322;50.932;5.318;2024-01-15T14:27:12;2.80;1.40
18392;DHT22;9322;50.932;5.318;2024-01-15T14:29:37;3.00;1.40
18392;DHT22;9322;50.932;5.318;2024-01-15T14:32:04;3.00;1.40
18392;DHT22;9322;50.932;5.318;2024-01-15T14:34:30;2.90;1.40
18392;DHT22;9322;50.932;5.318;2024-01-15T14:36:56;2.90;1.40
18392;DHT22;9322;50.932;5.318;2024-01-15T14:39:22;2.80;1.40
18392;DHT22;9322;50.932;5.318;2024-01-15T14:41:48;2.70;1.40
18392;DHT22;9322;50.932;5.318;2024-01-15T14:44:14;2.60;1.40
18392;DHT22;9322;50.932;5.318;2024-01-15T14:46:40;2.70;1.40
18392;DHT22;9322;50.932;5.318;2024-01-15T14:49:06;2.50;1.40
18392;DHT22;9322;50.932;5.318;2024-01-15T14:51:32;2.40;1.40
18392;DHT22;9322;50.932;5.318;2024-01-15T14:53:58;2.40;1.40
18392;DHT22;9322;50.932;5.318;2024-01-15T14:56:23;2.30;1.40
18392;DHT22;9322;50.932;5.318;2024-01-15T14:58:49;2.30;1.40
18392;DHT22;9322;50.932;5.318;2024-01-15T15:01:15;2.20;1.40
18392;DHT22;9322;50.932;5.318;2024-01-15T15:03:40;2.30;1.40
18392;DHT22;9322;50.932;5.318;2024-01-15T15:06:06;2.20;1.40
18392;DHT22;9322;50.932;5.318;2024-01-15T15:08:34;2.40;1.40
18392;DHT22;9322;50.932;5.318;2024-01-15T15:11:00;2.40;1.40
18392;DHT22;9322;50.932;5.318;2024-01-15T15:13:26;2.50;1.40
18392;DHT22;9322;50.932;5.318;2024-01-15T15:15:53;2.50;1.40
18392;DHT22;9322;50.932;5.318;2024-01-15T15:18:21;2.50;1.40
18392;DHT22;9322;50.932;5.318;2024-01-15T15:20:47;2.50;1.40
18392;DHT22;9322;50.932;5.318;2024-01-15T15:23:13;2.70;1.40
18392;DHT22;9322;50.932;5.318;2024-01-15T15:25:54;2.50;1.40
18392;DHT22;9322;50.932;5.318;2024-01-15T15:28:20;2.50;1.40
18392;DHT22;9322;50.932;5.318;2024-01-15T15:30:45;2.60;1.40
18392;DHT22;9322;50.932;5.318;2024-01-15T15:33:11;2.40;1.40
18392;DHT22;9322;50.932;5.318;2024-01-15T15:35:36;2.30;1.40
18392;DHT22;9322;50.932;5.318;2024-01-15T15:38:02;2.30;1.40
18392;DHT22;9322;50.932;5.318;2024-01-15T15:40:28;2.10;1.40
18392;DHT22;9322;50.932;5.318;2024-01-15T15:42:53;2.10;1.40
18392;DHT22;9322;50.932;5.318;2024-01-15T15:45:19;2.10;1.40
18392;DHT22;9322;50.932;5.318;2024-01-15T15:47:45;2.10;1.40
18392;DHT22;9322;50.932;5.318;2024-01-15T15:50:11;1.90;1.40
18392;DHT22;9322;50.932;5.318;2024-01-15T15:52:37;1.90;1.40
18392;DHT22;9322;50.932;5.318;2024-01-15T15:55:03;1.90;1.40
18392;DHT22;9322;50.932;5.318;2024-01-15T15:57:28;1.90;1.40
18392;DHT22;9322;50.932;5.318;2024-01-15T15:59:55;1.80;1.40
18392;DHT22;9322;50.932;5.318;2024-01-15T16:02:21;1.70;1.40
18392;DHT22;9322;50.932;5.318;2024-01-15T16:04:47;1.70;1.40
18392;DHT22;9322;50.932;5.318;2024-01-15T16:07:12;1.60;1.40
18392;DHT22;9322;50.932;5.318;2024-01-15T16:09:39;1.60;1.40
18392;DHT22;9322;50.932;5.318;2024-01-15T16:12:07;1.60;1.40
18392;DHT22;9322;50.932;5.318;2024-01-15T16:14:34;1.70;1.40
18392;DHT22;9322;50.932;5.318;2024-01-15T16:17:00;1.80;1.40
18392;DHT22;9322;50.932;5.318;2024-01-15T16:19:26;1.70;1.40
18392;DHT22;9322;50.932;5.318;2024-01-15T16:21:52;1.70;1.40